Chanute Martin Johnson Airport Chanute US
ICAO: KCNU
IATA: CNU
Category: Medium
Scheduled Services: No

Elevation: 1002 ft
TransAlt. 18000 ft.

Airport Communications:
ASOS:127.075
KANSAS CITY CNTR:132.9
WICHITA RDO:122.35
CTAF/UNICOM:122.7

KCNU Zoom In..

If Map Doesn't Load, Click Here

Runways:

(A) RW 18 length 4255 ft width 75 ft
---- / hdg 182

(B) RW 36 length 4255 ft width 75 ft
---- / hdg 2

Location; KCNU
Day. 24 / Time. 05.29 Zulu
* Altimeter: 29.98
* Temperature: 16° c. 60.8°f.
* Wind from: 000° Speed 00 kn.
Dewpoint: 16° c.
Visibility: 3 Statute Miles.
Clouds: Scattered 3100 ft.
Conditions: Mist.

KCNU 240529Z AUTO 00000KT 3SM BR SCT031 16/16 A2998 RMK AO2 T01560156


Wind - Calm.

 
 
jpsmedia.com for Web Design worldairports.se 2018   terms of use